createdAt,value
2023-05-12T00:03:34.243Z,11.70
2023-05-12T00:09:23.095Z,6.78
2023-05-12T00:15:10.347Z,6.00
2023-05-12T00:20:57.682Z,7.43
2023-05-12T00:26:45.902Z,3.80
2023-05-12T00:32:33.104Z,5.72
2023-05-12T00:38:23.249Z,10.15
2023-05-12T00:44:10.253Z,5.07
2023-05-12T00:49:57.848Z,4.45
2023-05-12T00:55:59.825Z,5.20
2023-05-12T01:01:53.580Z,5.60
2023-05-12T01:07:40.708Z,7.25
2023-05-12T01:13:33.057Z,4.60
2023-05-12T01:19:49.345Z,18.13
2023-05-12T01:25:40.312Z,7.20
2023-05-12T01:31:27.867Z,4.65
2023-05-12T01:37:18.311Z,7.07
2023-05-12T01:43:09.183Z,7.05
2023-05-12T01:48:57.485Z,9.15
2023-05-12T01:54:59.772Z,9.23
2023-05-12T02:00:51.079Z,4.70
2023-05-12T02:06:38.701Z,4.85
2023-05-12T02:12:39.124Z,8.05
2023-05-12T02:18:26.271Z,11.15
2023-05-12T02:24:15.000Z,7.13
2023-05-12T02:30:02.643Z,11.02
2023-05-12T02:35:52.868Z,11.73
2023-05-12T02:41:55.606Z,23.55
2023-05-12T02:47:46.148Z,17.75
2023-05-12T02:53:42.569Z,18.63
2023-05-12T02:59:30.783Z,18.45
2023-05-12T03:05:17.779Z,13.25
2023-05-12T03:11:11.708Z,21.15
2023-05-12T03:16:59.155Z,23.52
2023-05-12T03:22:46.343Z,17.02
2023-05-12T03:28:33.460Z,16.98
2023-05-12T03:34:23.577Z,16.77
2023-05-12T03:40:11.514Z,16.42
2023-05-12T03:45:58.744Z,18.23
2023-05-12T03:51:46.652Z,18.75
2023-05-12T03:57:42.665Z,18.05
2023-05-12T04:03:30.055Z,19.75
2023-05-12T04:09:17.028Z,21.08
2023-05-12T04:15:04.314Z,21.15
2023-05-12T04:20:51.185Z,14.93
2023-05-12T04:26:44.337Z,23.20
2023-05-12T04:32:31.996Z,17.02
2023-05-12T04:38:23.436Z,15.30
2023-05-12T04:44:22.403Z,17.50
2023-05-12T04:50:11.355Z,19.42
2023-05-12T04:56:00.823Z,19.65
2023-05-12T05:01:51.638Z,18.77
2023-05-12T05:07:41.329Z,21.20
2023-05-12T05:13:28.407Z,18.85
2023-05-12T05:19:35.882Z,19.77
2023-05-12T05:25:40.746Z,19.98
2023-05-12T05:31:29.399Z,17.08
2023-05-12T05:37:18.900Z,24.08
2023-05-12T05:43:06.666Z,22.00
2023-05-12T05:48:53.592Z,14.40
2023-05-12T06:00:48.256Z,7.93
2023-05-12T06:06:50.024Z,11.90
2023-05-12T06:12:37.674Z,7.97
2023-05-12T06:18:29.627Z,11.77
2023-05-12T06:24:17.587Z,16.88
2023-05-12T06:30:05.437Z,15.20
2023-05-12T06:42:09.069Z,9.98
2023-05-12T06:48:13.500Z,9.25
2023-05-12T06:54:03.104Z,11.15
2023-05-12T06:59:55.149Z,16.77
2023-05-12T07:05:50.581Z,9.70
2023-05-12T07:12:00.845Z,12.23
2023-05-12T07:18:53.333Z,6.30
2023-05-12T07:24:41.928Z,7.03
2023-05-12T07:30:31.517Z,8.75
2023-05-12T07:36:21.956Z,3.40
2023-05-12T07:42:15.690Z,4.57
2023-05-12T07:48:03.801Z,5.88
2023-05-12T07:53:50.748Z,5.60
2023-05-12T07:59:37.948Z,1.88
2023-05-12T08:05:28.900Z,5.30
2023-05-12T08:11:50.734Z,1.52
2023-05-12T08:17:44.860Z,7.95
2023-05-12T08:23:45.526Z,3.40
2023-05-12T08:29:42.485Z,2.30
2023-05-12T08:35:30.510Z,5.85
2023-05-12T08:41:51.715Z,5.70
2023-05-12T08:47:42.310Z,7.28
2023-05-12T08:53:53.534Z,4.85
2023-05-12T09:00:00.212Z,4.53
2023-05-12T09:05:51.152Z,6.80
2023-05-12T09:11:50.892Z,3.72
2023-05-12T09:17:46.673Z,12.65
2023-05-12T09:23:45.135Z,2.25
2023-05-12T09:29:37.401Z,3.10
2023-05-12T09:35:32.251Z,1.00
2023-05-12T09:41:25.789Z,3.88
2023-05-12T09:47:18.475Z,2.72
2023-05-12T09:53:08.662Z,3.60
2023-05-12T09:58:57.712Z,13.85
2023-05-12T10:05:02.281Z,4.15
2023-05-12T10:11:02.365Z,3.17
2023-05-12T10:16:51.217Z,1.77
2023-05-12T10:23:18.934Z,10.35
2023-05-12T10:30:19.185Z,2.15
2023-05-12T10:59:41.164Z,4.40
2023-05-12T11:06:26.034Z,13.25
2023-05-12T11:13:23.048Z,3.67
2023-05-12T11:19:16.119Z,1.83
2023-05-12T11:25:10.763Z,1.25
2023-05-12T11:31:03.948Z,3.63
2023-05-12T11:36:53.503Z,3.40
2023-05-12T11:42:42.857Z,4.78
2023-05-12T11:48:36.143Z,0.88
2023-05-12T11:54:23.780Z,2.42
2023-05-12T12:00:12.235Z,0.75
2023-05-12T12:07:04.770Z,1.58
2023-05-12T12:12:57.768Z,10.18
2023-05-12T12:18:57.646Z,6.60
2023-05-12T12:24:59.224Z,5.43
2023-05-12T12:30:47.696Z,1.88
2023-05-12T12:36:39.069Z,4.15
2023-05-12T12:42:38.614Z,1.05
2023-05-12T12:48:36.802Z,1.70
2023-05-12T12:54:36.705Z,1.75
2023-05-12T13:00:33.589Z,2.78
2023-05-12T13:06:31.625Z,5.10
2023-05-12T13:12:21.494Z,2.65
2023-05-12T13:18:37.823Z,3.85
2023-05-12T13:24:30.076Z,4.90
2023-05-12T13:30:30.651Z,3.70
2023-05-12T13:36:42.960Z,5.88
2023-05-12T13:42:32.661Z,7.13
2023-05-12T13:48:28.539Z,5.95
2023-05-12T13:54:16.163Z,8.40
2023-05-12T14:00:08.197Z,3.90
2023-05-12T14:06:27.077Z,7.32
2023-05-12T14:12:41.576Z,7.22
2023-05-12T14:26:17.888Z,9.10
2023-05-12T14:32:15.110Z,9.40
2023-05-12T14:38:17.887Z,8.82
2023-05-12T14:44:16.076Z,9.57
2023-05-12T14:50:05.544Z,16.98
2023-05-12T14:55:54.588Z,12.82
2023-05-12T15:01:52.734Z,12.32
2023-05-12T15:07:41.702Z,15.73
2023-05-12T15:13:30.943Z,10.70
2023-05-12T15:19:21.722Z,11.05
2023-05-12T15:25:15.668Z,9.65
2023-05-12T15:31:05.562Z,10.98
2023-05-12T15:36:52.680Z,15.13
2023-05-12T15:58:20.328Z,12.60
2023-05-12T16:04:07.820Z,14.70
2023-05-12T16:09:57.817Z,11.35
2023-05-12T16:15:49.035Z,10.85
2023-05-12T16:21:38.700Z,14.23
2023-05-12T16:27:34.198Z,21.65
2023-05-12T16:33:21.154Z,11.93
2023-05-12T16:39:09.532Z,16.05
2023-05-12T16:45:01.374Z,17.85
2023-05-12T16:51:03.384Z,10.67
2023-05-12T16:56:53.330Z,12.32
2023-05-12T17:02:40.424Z,15.07
2023-05-12T17:08:41.831Z,17.50
2023-05-12T17:14:33.915Z,19.80
2023-05-12T17:20:22.316Z,20.33
2023-05-12T17:26:15.915Z,24.10
2023-05-12T17:32:05.924Z,11.73
2023-05-12T17:44:33.871Z,13.80
2023-05-12T17:50:31.907Z,20.98
2023-05-12T17:56:21.171Z,16.30
2023-05-12T18:02:09.964Z,14.85
2023-05-12T18:07:56.926Z,13.88
2023-05-12T18:13:44.362Z,17.10
2023-05-12T18:19:31.589Z,16.73
2023-05-12T18:25:20.949Z,23.00
2023-05-12T18:31:15.816Z,10.95
2023-05-12T18:37:08.571Z,15.15
2023-05-12T18:42:56.348Z,22.13
2023-05-12T18:48:54.288Z,20.20
2023-05-12T18:54:42.110Z,23.52
2023-05-12T19:00:33.330Z,14.30
2023-05-12T19:06:24.365Z,19.52
2023-05-12T19:12:11.999Z,17.73
2023-05-12T19:17:59.564Z,19.05
2023-05-12T19:23:51.298Z,21.70
2023-05-12T19:29:38.411Z,20.20
2023-05-12T19:35:26.362Z,20.10
2023-05-12T19:41:15.982Z,18.88
2023-05-12T19:47:14.171Z,18.98
2023-05-12T19:53:02.915Z,23.77
2023-05-12T19:58:50.619Z,18.75
2023-05-12T20:12:30.587Z,15.60
2023-05-12T20:18:24.247Z,15.70
2023-05-12T20:24:16.441Z,14.02
2023-05-12T20:30:03.987Z,14.63
2023-05-12T20:43:34.420Z,22.88
2023-05-12T20:50:01.485Z,18.85
2023-05-12T20:55:57.022Z,21.02
2023-05-12T21:01:48.063Z,13.63
2023-05-12T21:07:36.282Z,20.65
2023-05-12T21:13:23.279Z,18.50
2023-05-12T21:19:12.191Z,17.58
2023-05-12T21:25:04.365Z,22.48
2023-05-12T21:30:53.691Z,13.80
2023-05-12T21:36:42.060Z,26.48
2023-05-12T21:42:35.896Z,20.35
2023-05-12T21:48:22.757Z,13.77
2023-05-12T21:54:09.501Z,14.68
2023-05-12T22:00:07.791Z,19.10
2023-05-12T22:06:02.467Z,14.98
2023-05-12T22:11:54.256Z,25.58
2023-05-12T22:17:43.251Z,17.38
2023-05-12T22:23:31.463Z,17.92
2023-05-12T22:29:21.481Z,24.80
2023-05-12T22:35:11.391Z,12.50
2023-05-12T22:40:59.780Z,14.30
2023-05-12T22:46:47.239Z,19.20
2023-05-12T22:52:35.264Z,24.67
2023-05-12T22:58:36.337Z,16.50
2023-05-12T23:04:25.555Z,20.00
2023-05-12T23:10:17.542Z,20.77
2023-05-12T23:16:05.731Z,16.73
2023-05-12T23:21:52.750Z,18.10
2023-05-12T23:27:41.829Z,15.00
2023-05-12T23:33:39.279Z,21.42
2023-05-12T23:39:31.738Z,17.13
2023-05-12T23:45:19.590Z,12.20
2023-05-12T23:51:08.274Z,17.65
2023-05-12T23:56:57.075Z,14.63
